Time;durP1;ratioP1;P1;durP2;ratioP2;P2;SDS_P1;SDS_P2;PMS_P1;PMS_P2;Temp;Humidity;BMP_temperature;BMP_pressure;BME280_temperature;BME280_humidity;BME280_pressure;Samples;Min_cycle;Max_cycle;Signal;HPM_P1;HPM_P2
2021/03/15 00:00:59;;;;;;;9.35;2.40;;;22.40;77.60;;;;;;6148487;23;20001;-78
2021/03/15 00:03:27;;;;;;;10.25;3.63;;;22.40;77.50;;;;;;6150048;23;20028;-78
2021/03/15 00:05:53;;;;;;;12.57;2.38;;;22.40;77.50;;;;;;6150200;23;20006;-78
2021/03/15 00:08:20;;;;;;;7.43;2.45;;;22.40;77.50;;;;;;6145650;23;20001;-76
2021/03/15 00:10:47;;;;;;;9.30;2.20;;;22.40;77.60;;;;;;6149458;23;20006;-76
2021/03/15 00:13:15;;;;;;;11.48;2.35;;;22.40;77.60;;;;;;6149595;23;20080;-76
2021/03/15 00:15:43;;;;;;;6.25;1.83;;;22.40;77.60;;;;;;6151369;23;20081;-78
2021/03/15 00:18:10;;;;;;;11.40;2.45;;;22.40;77.60;;;;;;6148762;23;20016;-76
2021/03/15 00:20:37;;;;;;;7.70;2.13;;;22.40;77.60;;;;;;6151493;23;20011;-77
2021/03/15 00:23:03;;;;;;;7.88;2.65;;;22.40;77.50;;;;;;6151459;23;20009;-77
2021/03/15 00:25:30;;;;;;;7.70;2.10;;;22.40;77.60;;;;;;6150936;23;20008;-76
2021/03/15 00:27:56;;;;;;;7.20;1.88;;;22.40;77.60;;;;;;6150597;23;20329;-76
2021/03/15 00:30:23;;;;;;;4.53;1.73;;;22.40;77.60;;;;;;6150402;23;20036;-77
2021/03/15 00:32:50;;;;;;;8.10;1.85;;;22.40;77.70;;;;;;6150660;23;20021;-78
2021/03/15 00:35:17;;;;;;;4.55;1.48;;;22.40;77.60;;;;;;6150621;23;20002;-77
2021/03/15 00:37:45;;;;;;;3.20;1.10;;;22.40;77.60;;;;;;6148678;23;20020;-77
2021/03/15 00:40:15;;;;;;;7.78;2.22;;;22.40;77.70;;;;;;6150840;23;20005;-80
2021/03/15 00:42:46;;;;;;;2.20;0.90;;;22.40;77.70;;;;;;6150931;23;19997;-79
2021/03/15 00:45:13;;;;;;;3.10;1.02;;;22.30;77.80;;;;;;6151968;23;19998;-76
2021/03/15 00:47:41;;;;;;;2.55;0.80;;;22.40;77.90;;;;;;6150666;23;20056;-76
2021/03/15 00:50:24;;;;;;;1.95;0.60;;;22.30;77.80;;;;;;6152727;23;20476;-76
2021/03/15 00:52:50;;;;;;;2.22;0.90;;;22.30;77.90;;;;;;6150588;23;20009;-76
2021/03/15 00:55:17;;;;;;;1.35;0.43;;;22.30;77.70;;;;;;6152394;23;20005;-77
2021/03/15 00:57:45;;;;;;;0.85;0.30;;;22.30;77.70;;;;;;6152944;23;20337;-76
2021/03/15 01:00:16;;;;;;;2.10;0.63;;;22.30;77.70;;;;;;6152485;23;20045;-76
2021/03/15 01:02:42;;;;;;;1.65;1.00;;;22.30;77.60;;;;;;6152993;23;20013;-76
2021/03/15 01:05:11;;;;;;;0.85;0.47;;;22.20;77.50;;;;;;6152487;23;19998;-76
2021/03/15 01:07:38;;;;;;;0.20;0.20;;;22.20;77.30;;;;;;6153281;23;19998;-76
2021/03/15 01:10:14;;;;;;;1.92;0.40;;;22.20;77.20;;;;;;6150331;23;20434;-76
2021/03/15 01:12:40;;;;;;;0.90;0.40;;;22.20;77.10;;;;;;6152339;23;20060;-76
2021/03/15 01:15:10;;;;;;;0.28;0.28;;;22.20;76.90;;;;;;6152678;23;20014;-76
2021/03/15 01:17:37;;;;;;;1.95;0.45;;;22.20;76.70;;;;;;6152097;23;20088;-77
2021/03/15 01:20:06;;;;;;;7.18;0.82;;;22.20;76.60;;;;;;6153336;23;20009;-74
2021/03/15 01:22:33;;;;;;;1.33;0.38;;;22.20;76.40;;;;;;6151537;23;20624;-78
2021/03/15 01:24:59;;;;;;;0.57;0.30;;;22.10;76.20;;;;;;6153136;23;20049;-78
2021/03/15 01:27:26;;;;;;;0.57;0.30;;;22.10;76.30;;;;;;6151794;23;20005;-77
2021/03/15 01:29:52;;;;;;;0.50;0.20;;;22.10;76.30;;;;;;6152924;23;20100;-77
2021/03/15 01:32:19;;;;;;;0.52;0.35;;;22.10;76.30;;;;;;6151773;23;20089;-77
2021/03/15 01:34:45;;;;;;;3.05;0.80;;;22.10;76.30;;;;;;6149729;23;20008;-78
2021/03/15 01:37:12;;;;;;;1.55;0.35;;;22.10;76.30;;;;;;6151176;23;20051;-77
2021/03/15 01:39:39;;;;;;;0.85;0.22;;;22.10;76.30;;;;;;6149764;23;20325;-77
2021/03/15 01:42:07;;;;;;;0.95;0.40;;;22.10;76.20;;;;;;6152288;23;20006;-78
2021/03/15 01:44:34;;;;;;;0.47;0.28;;;22.10;76.00;;;;;;6151558;23;20009;-78
2021/03/15 01:47:01;;;;;;;1.45;0.55;;;22.10;75.80;;;;;;6151052;23;20006;-77
2021/03/15 01:49:27;;;;;;;0.93;0.40;;;22.00;75.40;;;;;;6152681;23;20009;-78
2021/03/15 01:51:54;;;;;;;1.65;0.50;;;22.00;75.10;;;;;;6150566;23;20361;-78
2021/03/15 01:54:21;;;;;;;1.35;0.30;;;22.00;74.80;;;;;;6153086;23;20002;-78
2021/03/15 01:56:49;;;;;;;1.08;0.32;;;21.90;74.50;;;;;;6151426;23;20368;-77
2021/03/15 01:59:17;;;;;;;3.20;0.60;;;21.90;74.30;;;;;;6150473;23;20014;-77
2021/03/15 02:01:48;;;;;;;0.68;0.40;;;21.90;74.00;;;;;;6151498;23;20076;-79
2021/03/15 02:04:15;;;;;;;3.50;0.88;;;21.90;73.70;;;;;;6152261;23;19997;-78
2021/03/15 04:28:35;;;;;;;6.88;2.40;;;20.90;75.10;;;;;;5103394;27;20999;-74
2021/03/15 04:31:03;;;;;;;15.57;7.10;;;21.00;76.20;;;;;;5105747;28;20090;-74
2021/03/15 04:33:30;;;;;;;10.65;6.03;;;21.00;76.00;;;;;;5089240;28;20008;-72
2021/03/15 04:35:57;;;;;;;11.18;4.60;;;21.10;75.90;;;;;;5098457;28;20581;-73
2021/03/15 04:38:24;;;;;;;12.88;3.90;;;21.10;75.60;;;;;;5098291;28;20016;-74
2021/03/15 04:41:31;;;;;;;7.43;2.30;;;21.10;75.40;;;;;;5101252;28;20032;-77
2021/03/15 04:44:40;;;;;;;8.80;3.22;;;21.10;75.40;;;;;;5101146;28;20026;-72
2021/03/15 04:47:07;;;;;;;8.27;2.25;;;21.10;75.20;;;;;;5101101;28;20107;-73
2021/03/15 04:49:34;;;;;;;12.40;8.88;;;21.20;75.10;;;;;;5098233;28;20070;-73
2021/03/15 04:52:01;;;;;;;10.15;9.02;;;21.20;75.00;;;;;;5104144;28;20386;-74
2021/03/15 04:54:28;;;;;;;12.10;7.00;;;21.20;74.90;;;;;;5094083;28;20020;-74
2021/03/15 04:56:56;;;;;;;4.82;3.85;;;21.20;74.80;;;;;;5098907;28;20055;-75
2021/03/15 04:59:24;;;;;;;5.18;3.10;;;21.10;74.70;;;;;;5098909;28;20015;-74
2021/03/15 05:01:52;;;;;;;7.10;2.90;;;21.20;74.80;;;;;;5096356;28;20028;-74
2021/03/15 05:04:22;;;;;;;4.60;2.20;;;21.20;74.90;;;;;;5096298;28;20008;-73
2021/03/15 05:06:51;;;;;;;2.50;1.80;;;21.20;75.00;;;;;;5095718;28;20028;-74
2021/03/15 05:09:18;;;;;;;3.53;1.65;;;21.20;75.30;;;;;;5095994;28;20074;-74
2021/03/15 05:11:44;;;;;;;9.02;1.73;;;21.10;75.30;;;;;;5098310;28;20635;-73
2021/03/15 05:14:12;;;;;;;3.28;1.30;;;21.20;75.40;;;;;;5098832;28;20043;-73
2021/03/15 05:16:41;;;;;;;5.22;1.05;;;21.20;75.40;;;;;;5097149;28;20036;-74
2021/03/15 05:19:11;;;;;;;3.83;1.40;;;21.10;75.40;;;;;;5097293;28;20105;-73
2021/03/15 05:21:40;;;;;;;4.10;1.60;;;21.20;75.50;;;;;;5098574;28;20067;-74
2021/03/15 05:24:08;;;;;;;5.78;1.83;;;21.10;75.60;;;;;;5098532;28;20494;-74
2021/03/15 05:26:38;;;;;;;3.47;1.13;;;21.10;75.60;;;;;;5094430;28;20047;-74
2021/03/15 05:29:20;;;;;;;7.05;1.25;;;21.10;75.60;;;;;;5089831;28;20020;-73
2021/03/15 05:31:49;;;;;;;4.07;1.30;;;21.20;75.80;;;;;;5078608;28;20036;-74
2021/03/15 05:34:19;;;;;;;6.25;1.90;;;21.10;75.70;;;;;;5077711;28;20029;-74
2021/03/15 05:36:46;;;;;;;2.42;1.40;;;21.10;75.70;;;;;;5080125;28;20059;-75
2021/03/15 05:39:13;;;;;;;5.20;2.40;;;21.10;75.70;;;;;;5078069;28;20479;-74
2021/03/15 05:41:47;;;;;;;10.18;2.35;;;21.10;75.70;;;;;;5080879;28;20017;-74
2021/03/15 05:44:54;;;;;;;2.35;1.35;;;21.10;75.60;;;;;;5078152;28;20020;-74
2021/03/15 05:47:42;;;;;;;3.42;1.42;;;21.10;75.60;;;;;;5085028;28;20093;-75
2021/03/15 05:50:27;;;;;;;2.35;1.15;;;21.10;75.60;;;;;;5083762;28;20036;-73
2021/03/15 05:53:30;;;;;;;4.27;1.10;;;21.10;75.70;;;;;;5083106;28;20020;-76
2021/03/15 05:56:19;;;;;;;6.00;2.55;;;21.10;75.70;;;;;;5079982;28;20051;-75
2021/03/15 05:59:20;;;;;;;6.30;1.27;;;21.10;75.80;;;;;;5076162;28;20028;-76
2021/03/15 06:01:46;;;;;;;4.35;1.40;;;21.10;75.90;;;;;;5073149;28;20024;-74
2021/03/15 06:04:44;;;;;;;4.68;1.52;;;21.10;76.00;;;;;;5076284;28;20405;-74
2021/03/15 06:07:14;;;;;;;9.07;1.63;;;21.10;75.80;;;;;;5082993;28;20016;-76
2021/03/15 06:10:03;;;;;;;4.85;1.45;;;21.10;75.80;;;;;;5083575;28;20043;-74
2021/03/15 06:12:38;;;;;;;4.75;2.45;;;21.10;75.70;;;;;;5083085;28;20107;-73
2021/03/15 06:15:05;;;;;;;4.50;1.42;;;21.10;75.50;;;;;;5083931;28;20012;-74
2021/03/15 06:17:34;;;;;;;6.57;1.75;;;21.10;75.50;;;;;;5075828;28;20787;-73
2021/03/15 06:20:03;;;;;;;7.03;1.40;;;21.10;75.60;;;;;;5076005;28;20516;-74
2021/03/15 06:22:30;;;;;;;5.03;2.85;;;21.10;75.50;;;;;;5076583;28;20532;-74
2021/03/15 06:24:58;;;;;;;5.82;1.98;;;21.10;75.60;;;;;;5075485;28;20036;-74
2021/03/15 06:27:26;;;;;;;3.92;1.40;;;21.10;75.70;;;;;;5072215;28;20039;-76
2021/03/15 06:29:52;;;;;;;5.65;1.65;;;21.10;75.80;;;;;;5077146;28;20016;-75
2021/03/15 06:32:58;;;;;;;6.63;1.50;;;21.10;75.70;;;;;;5078772;28;20012;-75
2021/03/15 06:35:34;;;;;;;6.18;2.25;;;21.20;75.70;;;;;;5073049;28;20063;-77
2021/03/15 06:38:01;;;;;;;14.32;8.07;;;21.20;75.60;;;;;;5074354;28;20028;-75
2021/03/15 06:40:29;;;;;;;13.05;6.57;;;21.20;75.50;;;;;;5072815;28;20407;-75
2021/03/15 06:42:58;;;;;;;8.80;3.83;;;21.20;75.50;;;;;;5080579;28;20483;-76
2021/03/15 06:45:24;;;;;;;11.10;3.33;;;21.20;75.50;;;;;;5073033;28;20024;-74
2021/03/15 06:47:51;;;;;;;12.43;2.42;;;21.20;75.40;;;;;;5075953;28;20093;-75
2021/03/15 06:50:19;;;;;;;9.40;3.20;;;21.30;75.50;;;;;;5077032;28;20098;-74
2021/03/15 06:52:51;;;;;;;7.20;2.75;;;21.20;75.40;;;;;;5077698;28;21011;-75
2021/03/15 06:55:24;;;;;;;11.90;3.50;;;21.30;75.40;;;;;;5081826;28;20023;-76
2021/03/15 06:57:52;;;;;;;14.07;3.25;;;21.30;75.40;;;;;;5079976;28;20123;-76
2021/03/15 07:00:25;;;;;;;6.88;2.08;;;21.30;75.40;;;;;;5084160;28;20011;-74
2021/03/15 07:02:58;;;;;;;6.28;1.90;;;21.40;75.50;;;;;;5074582;28;20024;-74
2021/03/15 07:05:26;;;;;;;5.47;1.60;;;21.40;75.60;;;;;;5080379;28;20016;-78
2021/03/15 07:07:55;;;;;;;11.27;2.70;;;21.40;75.70;;;;;;5082557;28;20107;-76
2021/03/15 07:10:27;;;;;;;9.63;4.80;;;21.40;75.70;;;;;;5081859;28;20353;-76
2021/03/15 07:13:11;;;;;;;8.25;3.50;;;21.40;75.70;;;;;;5078248;28;20028;-78
2021/03/15 07:15:49;;;;;;;8.02;3.17;;;21.40;75.80;;;;;;5082337;28;20023;-72
2021/03/15 07:18:24;;;;;;;12.05;3.38;;;21.50;75.80;;;;;;5075097;28;20101;-73
2021/03/15 07:20:55;;;;;;;5.80;2.33;;;21.50;75.80;;;;;;5081719;28;20459;-72
2021/03/15 07:23:41;;;;;;;8.68;2.58;;;21.50;75.70;;;;;;5081680;28;20055;-72
2021/03/15 07:26:12;;;;;;;6.03;2.28;;;21.50;75.60;;;;;;5079679;28;20060;-72
2021/03/15 07:28:39;;;;;;;7.90;2.38;;;21.50;75.60;;;;;;5080190;28;20056;-78
2021/03/15 07:31:32;;;;;;;8.40;1.90;;;21.60;75.60;;;;;;5079238;28;20024;-72
2021/03/15 07:33:59;;;;;;;8.05;1.65;;;21.60;75.40;;;;;;5079730;28;20036;-72
2021/03/15 07:36:29;;;;;;;7.05;3.55;;;21.60;75.50;;;;;;5083040;28;20489;-72
2021/03/15 07:39:01;;;;;;;3.63;1.20;;;21.60;75.40;;;;;;5078337;28;20051;-72
2021/03/15 07:41:27;;;;;;;3.75;1.20;;;21.60;75.50;;;;;;5072440;28;20051;-72
2021/03/15 07:43:54;;;;;;;2.78;0.98;;;21.60;75.60;;;;;;5077731;28;20028;-74
2021/03/15 07:46:26;;;;;;;5.35;2.00;;;21.60;75.70;;;;;;5084036;28;20028;-73
2021/03/15 07:48:54;;;;;;;7.28;2.00;;;21.60;75.90;;;;;;5078131;28;20821;-75
2021/03/15 07:51:31;;;;;;;6.28;1.48;;;21.60;76.00;;;;;;5078640;28;20089;-72
2021/03/15 07:54:05;;;;;;;3.67;0.82;;;21.60;76.20;;;;;;5076617;28;20040;-72
2021/03/15 07:56:32;;;;;;;5.30;1.20;;;21.60;76.30;;;;;;5082591;28;20498;-75
2021/03/15 07:58:59;;;;;;;3.28;1.63;;;21.60;76.50;;;;;;5076334;28;20111;-75
2021/03/15 08:01:26;;;;;;;3.97;1.30;;;21.60;76.70;;;;;;5078416;28;20008;-72
2021/03/15 08:03:53;;;;;;;2.67;1.00;;;21.70;76.90;;;;;;5074760;28;20119;-71
2021/03/15 08:06:21;;;;;;;3.45;1.30;;;21.60;76.90;;;;;;5076547;28;20099;-74
2021/03/15 08:08:49;;;;;;;4.30;1.05;;;21.60;77.00;;;;;;5077113;28;20414;-73
2021/03/15 08:11:19;;;;;;;1.92;0.98;;;21.60;77.00;;;;;;5075681;28;20016;-74
2021/03/15 08:13:50;;;;;;;3.70;2.03;;;21.60;77.20;;;;;;5079114;28;20081;-73
2021/03/15 08:16:25;;;;;;;3.38;2.00;;;21.70;77.30;;;;;;5077987;28;20029;-72
2021/03/15 08:18:54;;;;;;;3.10;1.95;;;21.70;77.40;;;;;;5078747;28;20553;-74
2021/03/15 08:21:36;;;;;;;3.75;2.13;;;21.70;77.30;;;;;;5076133;28;20024;-72
2021/03/15 08:24:04;;;;;;;6.88;2.20;;;21.70;77.30;;;;;;5075696;28;20101;-72
2021/03/15 08:26:32;;;;;;;5.70;2.47;;;21.70;77.20;;;;;;5083417;28;20032;-72
2021/03/15 08:29:01;;;;;;;7.72;2.83;;;21.70;77.00;;;;;;5079959;28;20657;-76
2021/03/15 08:31:41;;;;;;;8.73;3.95;;;21.80;76.90;;;;;;5079557;28;20344;-72
2021/03/15 08:34:11;;;;;;;10.43;4.18;;;21.80;76.90;;;;;;5081999;28;20024;-79
2021/03/15 08:36:42;;;;;;;9.27;2.65;;;21.80;76.80;;;;;;5084454;28;20032;-74
2021/03/15 08:39:27;;;;;;;5.97;2.33;;;21.80;76.70;;;;;;5079812;28;20133;-72
2021/03/15 08:42:12;;;;;;;13.50;3.25;;;21.90;76.50;;;;;;5076913;28;20107;-79
2021/03/15 08:44:40;;;;;;;7.07;2.25;;;21.90;76.30;;;;;;5080230;28;20052;-77
2021/03/15 08:47:09;;;;;;;8.55;1.77;;;21.90;76.10;;;;;;5082671;28;20024;-72
2021/03/15 08:49:41;;;;;;;6.35;1.52;;;22.00;75.70;;;;;;5081154;28;20016;-73
2021/03/15 08:52:12;;;;;;;7.45;1.35;;;22.00;75.10;;;;;;5082053;28;20383;-72
2021/03/15 08:54:47;;;;;;;6.72;1.48;;;22.00;74.40;;;;;;5077805;28;20021;-73
2021/03/15 08:57:34;;;;;;;7.18;1.70;;;22.00;73.70;;;;;;5077756;28;20040;-72
2021/03/15 09:00:34;;;;;;;4.32;1.55;;;22.10;73.30;;;;;;5079986;28;20023;-77
2021/03/15 09:03:00;;;;;;;3.97;2.08;;;22.00;72.90;;;;;;5079762;28;20114;-72
2021/03/15 09:05:29;;;;;;;6.25;1.58;;;22.10;72.90;;;;;;5084671;28;20543;-73
2021/03/15 09:07:56;;;;;;;7.47;1.58;;;22.10;73.10;;;;;;5082154;28;20031;-78
2021/03/15 09:10:27;;;;;;;5.00;1.38;;;22.10;73.30;;;;;;5083906;28;20020;-72
2021/03/15 09:13:15;;;;;;;6.53;1.70;;;22.10;73.30;;;;;;5086469;28;20026;-73
2021/03/15 09:15:50;;;;;;;9.00;3.45;;;22.10;73.20;;;;;;5084506;28;20120;-72
2021/03/15 09:18:40;;;;;;;6.53;5.85;;;22.10;73.00;;;;;;5084987;28;20375;-72
2021/03/15 09:21:26;;;;;;;10.32;4.40;;;22.10;72.90;;;;;;5081155;28;20505;-75
2021/03/15 09:23:54;;;;;;;;;;;22.10;72.90;;;;;;5083948;28;20028;-72
2021/03/15 09:26:30;;;;;;;4.05;1.65;;;22.10;72.90;;;;;;5086708;28;19912;-75
2021/03/15 09:28:57;;;;;;;5.68;2.33;;;22.10;72.80;;;;;;5081210;28;20039;-73
2021/03/15 09:31:24;;;;;;;6.50;1.58;;;22.10;72.70;;;;;;5085505;28;20030;-78
2021/03/15 09:33:51;;;;;;;4.78;1.85;;;22.10;72.70;;;;;;5082931;28;20050;-72
2021/03/15 09:36:31;;;;;;;5.97;1.35;;;22.10;72.70;;;;;;5083769;28;20354;-77
2021/03/15 09:38:58;;;;;;;4.68;2.10;;;22.10;72.80;;;;;;5083056;28;20031;-78
2021/03/15 09:41:26;;;;;;;6.93;1.65;;;22.10;72.80;;;;;;5084302;28;21391;-72
2021/03/15 09:43:53;;;;;;;6.68;1.77;;;22.10;72.90;;;;;;5081140;28;20058;-72
2021/03/15 09:46:29;;;;;;;3.20;1.52;;;22.10;73.00;;;;;;5081282;28;20750;-72
2021/03/15 09:48:55;;;;;;;7.63;1.63;;;22.10;72.90;;;;;;5082022;28;20095;-72
2021/03/15 09:51:26;;;;;;;3.72;1.90;;;22.20;72.70;;;;;;5082439;28;20490;-74
2021/03/15 09:53:55;;;;;;;5.35;1.70;;;22.20;72.40;;;;;;5080572;28;20028;-72
2021/03/15 09:56:24;;;;;;;4.82;1.40;;;22.30;72.10;;;;;;5076580;28;20032;-74
2021/03/15 09:58:51;;;;;;;2.92;1.45;;;22.20;71.60;;;;;;5082661;28;20028;-73
2021/03/15 10:01:22;;;;;;;8.00;1.48;;;22.30;71.30;;;;;;5085552;28;20096;-73
2021/03/15 10:03:55;;;;;;;7.72;1.45;;;22.30;71.20;;;;;;5083240;28;20067;-71
2021/03/15 10:06:27;;;;;;;7.32;1.40;;;22.30;71.00;;;;;;5084179;28;20024;-74
2021/03/15 10:08:55;;;;;;;8.38;1.40;;;22.30;70.90;;;;;;5082560;28;20048;-73
2021/03/15 10:11:22;;;;;;;5.22;1.70;;;22.40;71.00;;;;;;5082706;28;20100;-71
2021/03/15 10:14:00;;;;;;;8.35;1.75;;;22.40;71.00;;;;;;5081751;28;20070;-72
2021/03/15 10:16:27;;;;;;;6.68;2.45;;;22.40;70.90;;;;;;5079808;28;20032;-72
2021/03/15 10:18:53;;;;;;;8.27;3.10;;;22.40;70.90;;;;;;5080546;28;20031;-72
2021/03/15 10:21:31;;;;;;;11.55;3.58;;;22.40;71.10;;;;;;5081884;28;20012;-72
2021/03/15 10:23:58;;;;;;;6.20;2.03;;;22.40;71.30;;;;;;5084717;28;20032;-71
2021/03/15 10:26:24;;;;;;;5.35;2.30;;;22.50;71.70;;;;;;5082064;28;20089;-72
2021/03/15 10:28:55;;;;;;;6.53;2.15;;;22.60;71.90;;;;;;5080782;28;20067;-71
2021/03/15 10:31:22;;;;;;;6.65;2.17;;;22.60;71.80;;;;;;5081378;28;20076;-75
2021/03/15 10:33:50;;;;;;;5.97;1.70;;;22.70;71.40;;;;;;5083987;28;20051;-72
2021/03/15 10:36:22;;;;;;;7.88;2.08;;;22.80;71.00;;;;;;5082841;28;20525;-72
2021/03/15 10:38:49;;;;;;;16.00;3.20;;;22.90;70.70;;;;;;5081782;28;20032;-72
2021/03/15 10:41:17;;;;;;;7.07;2.15;;;23.00;70.00;;;;;;5080050;28;20426;-72
2021/03/15 10:43:47;;;;;;;12.57;2.20;;;23.00;69.20;;;;;;5081978;28;20042;-72
2021/03/15 10:46:17;;;;;;;9.55;2.30;;;23.10;68.60;;;;;;5085443;28;20016;-72
2021/03/15 10:48:45;;;;;;;5.45;2.00;;;23.10;68.20;;;;;;5082047;28;20489;-72
2021/03/15 10:51:11;;;;;;;7.43;4.03;;;23.10;67.40;;;;;;5081769;28;20021;-73
2021/03/15 10:53:51;;;;;;;7.22;3.78;;;23.10;67.00;;;;;;5087000;28;20040;-72
2021/03/15 10:56:22;;;;;;;9.00;3.88;;;23.10;66.30;;;;;;5088481;28;20039;-78
2021/03/15 10:59:28;;;;;;;6.13;3.28;;;23.00;66.10;;;;;;5072601;28;20036;-72
2021/03/15 11:02:43;;;;;;;12.32;3.38;;;23.00;65.90;;;;;;5078657;28;20101;-73
2021/03/15 11:05:14;;;;;;;7.88;2.55;;;23.00;65.70;;;;;;5087729;28;20093;-72
2021/03/15 11:07:41;;;;;;;5.70;1.92;;;22.90;65.40;;;;;;5079143;28;20025;-72
2021/03/15 11:10:25;;;;;;;8.57;2.72;;;22.90;64.80;;;;;;5077986;28;20108;-72
2021/03/15 11:12:54;;;;;;;5.93;1.88;;;22.90;64.80;;;;;;5080235;28;20545;-72
2021/03/15 11:15:36;;;;;;;13.13;3.50;;;22.90;64.70;;;;;;5078209;28;20384;-73
2021/03/15 11:18:10;;;;;;;5.78;1.80;;;22.90;64.60;;;;;;5082666;28;20039;-72
2021/03/15 11:20:48;;;;;;;5.88;1.77;;;22.90;64.50;;;;;;5079177;28;20024;-72
2021/03/15 11:23:54;;;;;;;5.72;1.30;;;22.90;64.20;;;;;;5082098;28;20074;-73
2021/03/15 11:27:04;;;;;;;4.82;1.55;;;22.80;64.20;;;;;;5084754;28;20031;-73
2021/03/15 11:29:42;;;;;;;3.20;1.45;;;22.90;63.90;;;;;;5082452;28;20368;-72
2021/03/15 11:32:11;;;;;;;4.90;1.25;;;22.90;63.60;;;;;;5083626;28;21125;-73
2021/03/15 11:34:50;;;;;;;9.20;2.28;;;22.90;63.40;;;;;;5080969;28;20111;-73
2021/03/15 11:37:28;;;;;;;5.63;1.42;;;22.80;63.30;;;;;;5087703;28;20541;-72
2021/03/15 11:39:55;;;;;;;7.28;1.30;;;22.80;63.30;;;;;;5079705;28;20028;-72
2021/03/15 11:42:24;;;;;;;4.20;1.27;;;22.80;63.40;;;;;;5081700;28;20115;-72
2021/03/15 11:44:50;;;;;;;7.15;1.20;;;22.80;63.50;;;;;;5079037;28;20505;-72
2021/03/15 11:47:17;;;;;;;8.05;1.60;;;22.80;63.40;;;;;;5075061;28;20025;-72
2021/03/15 11:49:44;;;;;;;7.95;2.08;;;22.80;63.40;;;;;;5081117;28;20028;-72
2021/03/15 11:52:10;;;;;;;2.67;1.38;;;22.90;63.50;;;;;;5080919;28;20056;-72
2021/03/15 11:54:37;;;;;;;9.68;1.45;;;22.80;63.30;;;;;;5078490;28;20020;-73
2021/03/15 11:57:04;;;;;;;4.78;1.33;;;22.80;63.20;;;;;;5084430;28;20063;-74
2021/03/15 11:59:30;;;;;;;4.78;1.20;;;22.90;63.20;;;;;;5082553;28;20421;-72
2021/03/15 12:01:57;;;;;;;3.47;1.20;;;22.80;63.20;;;;;;5066426;28;20048;-75
2021/03/15 12:04:23;;;;;;;4.82;1.13;;;22.80;63.40;;;;;;5075922;28;20021;-73
2021/03/15 12:06:50;;;;;;;6.85;1.33;;;22.80;63.30;;;;;;5079222;28;20031;-79
2021/03/15 12:09:16;;;;;;;7.60;1.60;;;22.80;63.20;;;;;;5078878;28;20028;-75
2021/03/15 12:11:43;;;;;;;6.82;3.00;;;22.80;63.10;;;;;;5074758;28;20034;-73
2021/03/15 12:14:09;;;;;;;8.25;1.70;;;22.80;63.00;;;;;;5073654;28;20095;-78
2021/03/15 12:16:36;;;;;;;7.80;1.45;;;22.80;63.00;;;;;;5077603;28;20032;-75
2021/03/15 12:19:02;;;;;;;3.55;1.25;;;22.80;63.10;;;;;;5076387;28;20020;-73
2021/03/15 12:21:29;;;;;;;7.55;2.50;;;22.80;63.00;;;;;;5078389;28;20020;-74
2021/03/15 12:23:55;;;;;;;9.23;6.40;;;22.90;63.00;;;;;;5078938;28;20028;-78
2021/03/15 12:26:21;;;;;;;12.15;5.72;;;22.80;62.90;;;;;;5079462;28;20024;-79
2021/03/15 12:28:48;;;;;;;5.45;2.95;;;22.90;62.60;;;;;;5080516;28;20067;-76
2021/03/15 12:31:31;;;;;;;9.52;3.70;;;22.80;62.50;;;;;;5081001;28;20028;-79
2021/03/15 12:33:58;;;;;;;8.90;3.10;;;22.90;62.50;;;;;;5077103;28;20650;-76
2021/03/15 12:36:24;;;;;;;6.22;2.30;;;22.90;62.60;;;;;;5078516;28;20056;-72
2021/03/15 12:38:51;;;;;;;7.35;1.65;;;22.90;62.60;;;;;;5082730;28;20036;-72
2021/03/15 12:41:17;;;;;;;7.82;2.05;;;22.90;62.70;;;;;;5086190;28;20013;-72
2021/03/15 12:43:44;;;;;;;5.43;1.98;;;22.90;62.70;;;;;;5080460;28;20067;-72
2021/03/15 12:46:10;;;;;;;10.80;1.75;;;22.90;62.70;;;;;;5086570;28;20024;-72
2021/03/15 12:48:37;;;;;;;6.40;1.55;;;22.90;62.70;;;;;;5088928;28;20024;-72
2021/03/15 12:51:04;;;;;;;6.95;1.48;;;23.00;62.80;;;;;;5085173;28;20042;-72
2021/03/15 12:53:31;;;;;;;9.77;1.80;;;22.90;62.70;;;;;;5080140;28;20375;-73
2021/03/15 12:55:57;;;;;;;6.63;1.42;;;23.00;62.90;;;;;;5082912;28;20020;-72
2021/03/15 12:58:23;;;;;;;8.05;1.83;;;23.00;62.90;;;;;;5082659;28;20061;-72
2021/03/15 13:00:50;;;;;;;5.65;1.55;;;23.00;62.80;;;;;;5079784;28;20119;-72
2021/03/15 13:03:17;;;;;;;7.78;1.95;;;23.00;63.00;;;;;;5086859;28;20024;-73
2021/03/15 13:05:43;;;;;;;6.10;1.40;;;23.00;63.10;;;;;;5082527;28;20031;-72
2021/03/15 13:08:10;;;;;;;10.05;2.03;;;23.00;63.10;;;;;;5082517;28;20016;-71
2021/03/15 13:10:36;;;;;;;5.00;1.48;;;23.00;63.00;;;;;;5082224;28;20121;-74
2021/03/15 13:13:03;;;;;;;7.82;1.73;;;23.00;63.10;;;;;;5083587;28;20008;-75
2021/03/15 13:15:30;;;;;;;9.88;2.58;;;23.00;63.10;;;;;;5084677;28;20027;-73
2021/03/15 13:18:36;;;;;;;6.72;1.95;;;23.00;63.00;;;;;;5074711;28;20043;-73
2021/03/15 13:21:42;;;;;;;8.50;1.80;;;23.10;63.10;;;;;;5079684;28;20073;-75
2021/03/15 13:24:51;;;;;;;12.55;2.15;;;23.10;63.00;;;;;;5081746;28;20032;-77
2021/03/15 13:27:57;;;;;;;4.47;1.50;;;23.20;62.90;;;;;;5083661;28;20621;-77
2021/03/15 13:31:04;;;;;;;7.93;2.00;;;23.20;62.80;;;;;;5075756;28;20013;-73
2021/03/15 13:34:10;;;;;;;10.60;2.30;;;23.20;63.20;;;;;;5083286;28;20030;-76
2021/03/15 13:36:36;;;;;;;10.02;2.17;;;23.20;64.90;;;;;;5076824;28;20115;-73
2021/03/15 13:39:06;;;;;;;7.72;2.45;;;23.20;66.10;;;;;;5083334;28;20020;-73
2021/03/15 13:41:32;;;;;;;6.88;2.03;;;23.20;66.90;;;;;;5083767;28;20039;-73
2021/03/15 13:43:59;;;;;;;6.60;1.98;;;23.10;67.60;;;;;;5081074;28;20025;-72
2021/03/15 13:46:25;;;;;;;6.72;1.88;;;23.10;68.10;;;;;;5076864;28;20054;-72
2021/03/15 13:48:52;;;;;;;9.02;2.03;;;23.10;68.30;;;;;;5083271;28;20478;-75
2021/03/15 13:51:18;;;;;;;7.63;1.77;;;23.10;68.50;;;;;;5081968;28;20074;-73
2021/03/15 13:53:47;;;;;;;8.50;2.30;;;23.20;68.10;;;;;;5080413;28;20024;-75
2021/03/15 13:56:14;;;;;;;8.00;2.35;;;23.20;67.20;;;;;;5082030;28;20037;-74
2021/03/15 13:58:40;;;;;;;8.68;2.20;;;23.30;66.40;;;;;;5082795;28;20036;-72
2021/03/15 14:01:07;;;;;;;12.95;2.42;;;23.30;65.60;;;;;;5086861;28;20506;-77
2021/03/15 14:03:33;;;;;;;6.35;1.83;;;23.30;67.20;;;;;;5088230;28;20483;-72
2021/03/15 14:06:00;;;;;;;5.70;1.65;;;23.30;68.50;;;;;;5081410;28;20028;-77
2021/03/15 14:08:27;;;;;;;6.40;2.08;;;23.20;69.10;;;;;;5086987;28;20522;-72
2021/03/15 14:10:54;;;;;;;5.68;2.03;;;23.20;69.80;;;;;;5086846;28;20910;-72
2021/03/15 14:13:20;;;;;;;5.95;2.67;;;23.10;70.30;;;;;;5088593;28;20024;-74
2021/03/15 14:15:47;;;;;;;10.18;2.13;;;23.10;70.30;;;;;;5090678;28;20016;-72
2021/03/15 14:18:13;;;;;;;5.40;2.05;;;23.10;70.20;;;;;;5085040;28;20032;-77
2021/03/15 14:20:40;;;;;;;11.20;4.95;;;23.00;70.10;;;;;;5083406;28;20016;-74
2021/03/15 14:23:47;;;;;;;11.70;3.83;;;23.00;69.90;;;;;;5083472;28;20361;-74
2021/03/15 14:26:54;;;;;;;9.45;3.75;;;23.00;69.80;;;;;;5081701;28;20383;-74
2021/03/15 14:30:00;;;;;;;7.78;2.67;;;22.90;69.80;;;;;;5077055;28;20020;-72
2021/03/15 14:33:06;;;;;;;13.00;2.60;;;22.90;69.90;;;;;;5077511;28;20016;-76
2021/03/15 14:36:12;;;;;;;16.67;3.75;;;22.90;69.90;;;;;;5079077;28;20020;-76
2021/03/15 14:39:18;;;;;;;9.77;2.25;;;22.90;69.70;;;;;;5078846;28;20055;-76
2021/03/15 14:41:44;;;;;;;11.25;4.78;;;22.90;69.40;;;;;;5082148;28;20063;-77
2021/03/15 14:44:11;;;;;;;17.90;3.95;;;22.90;69.10;;;;;;5078714;28;20070;-71
2021/03/15 14:46:37;;;;;;;8.50;2.80;;;22.90;68.70;;;;;;5082947;28;20465;-71
2021/03/15 14:49:04;;;;;;;13.60;2.30;;;22.90;68.40;;;;;;5083471;28;20021;-74
2021/03/15 14:51:30;;;;;;;8.88;2.72;;;22.80;68.40;;;;;;5082971;28;20105;-83
2021/03/15 14:53:57;;;;;;;6.10;2.53;;;22.80;68.20;;;;;;5078841;28;20047;-72
2021/03/15 14:56:23;;;;;;;2.40;1.73;;;22.80;68.10;;;;;;5080726;28;20091;-83
2021/03/15 14:58:50;;;;;;;7.00;2.42;;;22.80;68.10;;;;;;5084197;28;20024;-72
2021/03/15 15:01:16;;;;;;;8.02;2.58;;;22.80;67.90;;;;;;5085099;28;20062;-74
2021/03/15 15:03:43;;;;;;;5.30;3.15;;;22.90;67.80;;;;;;5085366;28;20028;-77
2021/03/15 15:06:09;;;;;;;10.77;2.67;;;22.80;67.80;;;;;;5081740;28;20024;-73
2021/03/15 15:08:36;;;;;;;10.95;2.80;;;22.80;68.00;;;;;;5081941;28;20146;-82
2021/03/15 15:11:03;;;;;;;11.32;2.42;;;22.80;68.10;;;;;;5073099;28;20029;-73
2021/03/15 15:13:31;;;;;;;7.85;2.40;;;22.80;68.30;;;;;;5076950;28;20016;-74
2021/03/15 15:16:00;;;;;;;8.48;3.15;;;22.80;68.50;;;;;;5078486;28;20020;-75
2021/03/15 15:19:06;;;;;;;6.72;2.15;;;22.80;68.70;;;;;;5080621;28;20483;-80
2021/03/15 15:21:52;;;;;;;;;;;22.80;68.80;;;;;;5085663;28;20898;-77
2021/03/15 15:24:18;;;;;;;8.77;2.30;;;22.80;68.70;;;;;;5084330;28;19961;-84
2021/03/15 15:26:45;;;;;;;9.48;2.35;;;22.80;68.80;;;;;;5081726;28;20090;-75
2021/03/15 15:29:11;;;;;;;6.50;2.92;;;22.80;68.70;;;;;;5083649;28;20020;-75
2021/03/15 15:31:38;;;;;;;7.90;2.42;;;22.80;68.90;;;;;;5084474;28;20438;-77
2021/03/15 15:34:04;;;;;;;10.65;2.25;;;22.80;68.90;;;;;;5081535;28;20482;-80